sensor_id;sensor_type;location;lat;lon;timestamp;pressure;altitude;pressure_sealevel;temperature;humidity
13420;BME280;6781;58.440;15.470;2023-11-19T03:03:54;102617.63;;;-3.45;100.00
13420;BME280;6781;58.440;15.470;2023-11-19T03:06:24;102626.16;;;-3.40;100.00
13420;BME280;6781;58.440;15.470;2023-11-19T03:08:52;102614.16;;;-3.56;100.00
13420;BME280;6781;58.440;15.470;2023-11-19T03:11:19;102622.63;;;-3.54;100.00
13420;BME280;6781;58.440;15.470;2023-11-19T03:13:46;102626.94;;;-3.47;100.00
13420;BME280;6781;58.440;15.470;2023-11-19T03:16:13;102624.41;;;-3.47;100.00
13420;BME280;6781;58.440;15.470;2023-11-19T03:18:39;102621.00;;;-3.49;100.00
13420;BME280;6781;58.440;15.470;2023-11-19T03:21:07;102631.13;;;-3.46;100.00
13420;BME280;6781;58.440;15.470;2023-11-19T03:23:34;102620.06;;;-3.57;100.00
13420;BME280;6781;58.440;15.470;2023-11-19T03:26:01;102606.34;;;-3.71;100.00
13420;BME280;6781;58.440;15.470;2023-11-19T03:28:30;102638.75;;;-3.49;100.00
13420;BME280;6781;58.440;15.470;2023-11-19T03:30:57;102622.47;;;-3.66;100.00
13420;BME280;6781;58.440;15.470;2023-11-19T03:33:24;102634.34;;;-3.62;100.00
13420;BME280;6781;58.440;15.470;2023-11-19T03:35:53;102632.69;;;-3.60;100.00
13420;BME280;6781;58.440;15.470;2023-11-19T03:38:23;102625.03;;;-3.65;100.00
13420;BME280;6781;58.440;15.470;2023-11-19T03:40:50;102631.69;;;-3.71;100.00
13420;BME280;6781;58.440;15.470;2023-11-19T03:43:16;102636.06;;;-3.61;100.00
13420;BME280;6781;58.440;15.470;2023-11-19T03:45:44;102642.78;;;-3.63;100.00
13420;BME280;6781;58.440;15.470;2023-11-19T03:48:11;102651.31;;;-3.58;100.00
13420;BME280;6781;58.440;15.470;2023-11-19T03:50:38;102654.66;;;-3.59;100.00
13420;BME280;6781;58.440;15.470;2023-11-19T03:53:04;102663.16;;;-3.57;100.00
13420;BME280;6781;58.440;15.470;2023-11-19T03:55:33;102665.66;;;-3.58;100.00
13420;BME280;6781;58.440;15.470;2023-11-19T03:57:59;102677.50;;;-3.57;100.00
13420;BME280;6781;58.440;15.470;2023-11-19T04:00:26;102667.31;;;-3.62;100.00
13420;BME280;6781;58.440;15.470;2023-11-19T04:02:53;102681.84;;;-3.49;100.00
13420;BME280;6781;58.440;15.470;2023-11-19T04:05:19;102683.44;;;-3.57;100.00
13420;BME280;6781;58.440;15.470;2023-11-19T04:07:46;102696.22;;;-3.48;100.00
13420;BME280;6781;58.440;15.470;2023-11-19T04:10:13;102686.84;;;-3.55;100.00
13420;BME280;6781;58.440;15.470;2023-11-19T04:12:43;102686.84;;;-3.55;100.00
13420;BME280;6781;58.440;15.470;2023-11-19T04:15:10;102685.22;;;-3.50;100.00
13420;BME280;6781;58.440;15.470;2023-11-19T04:17:37;102685.94;;;-3.58;100.00
13420;BME280;6781;58.440;15.470;2023-11-19T04:20:04;102692.88;;;-3.47;100.00
13420;BME280;6781;58.440;15.470;2023-11-19T04:22:35;102694.56;;;-3.43;100.00
13420;BME280;6781;58.440;15.470;2023-11-19T04:25:02;102678.31;;;-3.60;100.00
13420;BME280;6781;58.440;15.470;2023-11-19T04:27:29;102680.09;;;-3.53;100.00
13420;BME280;6781;58.440;15.470;2023-11-19T04:29:58;102684.38;;;-3.50;100.00
13420;BME280;6781;58.440;15.470;2023-11-19T04:32:26;102677.44;;;-3.62;100.00
13420;BME280;6781;58.440;15.470;2023-11-19T04:34:54;102683.44;;;-3.57;100.00
13420;BME280;6781;58.440;15.470;2023-11-19T04:37:21;102698.81;;;-3.42;100.00
13420;BME280;6781;58.440;15.470;2023-11-19T04:39:47;102674.16;;;-3.55;100.00
13420;BME280;6781;58.440;15.470;2023-11-19T04:42:14;102684.38;;;-3.46;100.00
13420;BME280;6781;58.440;15.470;2023-11-19T04:44:42;102687.78;;;-3.45;100.00
13420;BME280;6781;58.440;15.470;2023-11-19T04:47:10;102688.66;;;-3.43;100.00
13420;BME280;6781;58.440;15.470;2023-11-19T04:49:39;102678.34;;;-3.58;100.00
13420;BME280;6781;58.440;15.470;2023-11-19T04:52:07;102661.31;;;-3.67;100.00
13420;BME280;6781;58.440;15.470;2023-11-19T04:54:34;102671.47;;;-3.66;100.00
13420;BME280;6781;58.440;15.470;2023-11-19T04:57:01;102685.13;;;-3.56;100.00
13420;BME280;6781;58.440;15.470;2023-11-19T04:59:28;102674.88;;;-3.65;100.00
13420;BME280;6781;58.440;15.470;2023-11-19T05:01:55;102669.72;;;-3.71;100.00
13420;BME280;6781;58.440;15.470;2023-11-19T05:04:23;102685.06;;;-3.62;100.00
13420;BME280;6781;58.440;15.470;2023-11-19T05:06:49;102681.66;;;-3.64;100.00
13420;BME280;6781;58.440;15.470;2023-11-19T05:09:16;102695.28;;;-3.56;100.00
13420;BME280;6781;58.440;15.470;2023-11-19T05:11:43;102688.38;;;-3.66;100.00
13420;BME280;6781;58.440;15.470;2023-11-19T05:14:09;102687.56;;;-3.64;100.00
13420;BME280;6781;58.440;15.470;2023-11-19T05:16:39;102701.13;;;-3.60;100.00
13420;BME280;6781;58.440;15.470;2023-11-19T05:19:05;102710.44;;;-3.59;100.00
13420;BME280;6781;58.440;15.470;2023-11-19T05:21:35;102709.59;;;-3.59;100.00
13420;BME280;6781;58.440;15.470;2023-11-19T05:24:02;102721.50;;;-3.54;100.00
13420;BME280;6781;58.440;15.470;2023-11-19T05:26:30;102725.81;;;-3.47;100.00
13420;BME280;6781;58.440;15.470;2023-11-19T05:28:56;102741.06;;;-3.44;100.00
13420;BME280;6781;58.440;15.470;2023-11-19T05:31:23;102751.31;;;-3.35;100.00
13420;BME280;6781;58.440;15.470;2023-11-19T05:33:50;102755.59;;;-3.32;100.00
13420;BME280;6781;58.440;15.470;2023-11-19T05:36:16;102756.34;;;-3.39;100.00
13420;BME280;6781;58.440;15.470;2023-11-19T05:38:45;102763.16;;;-3.35;100.00
13420;BME280;6781;58.440;15.470;2023-11-19T05:41:12;102781.97;;;-3.19;100.00
13420;BME280;6781;58.440;15.470;2023-11-19T05:43:38;102774.28;;;-3.25;100.00
13420;BME280;6781;58.440;15.470;2023-11-19T05:46:06;102774.34;;;-3.21;100.00
13420;BME280;6781;58.440;15.470;2023-11-19T05:48:34;102778.59;;;-3.18;100.00
13420;BME280;6781;58.440;15.470;2023-11-19T05:51:00;102761.56;;;-3.29;100.00
13420;BME280;6781;58.440;15.470;2023-11-19T05:53:28;102766.66;;;-3.25;100.00
13420;BME280;6781;58.440;15.470;2023-11-19T05:55:56;102758.09;;;-3.34;100.00
13420;BME280;6781;58.440;15.470;2023-11-19T05:58:23;102763.16;;;-3.35;100.00
13420;BME280;6781;58.440;15.470;2023-11-19T06:00:51;102780.22;;;-3.23;100.00
13420;BME280;6781;58.440;15.470;2023-11-19T06:03:18;102775.16;;;-3.22;100.00
13420;BME280;6781;58.440;15.470;2023-11-19T06:05:46;102786.16;;;-3.21;100.00
13420;BME280;6781;58.440;15.470;2023-11-19T06:08:13;102788.88;;;-3.09;100.00
13420;BME280;6781;58.440;15.470;2023-11-19T06:10:40;102778.63;;;-3.17;100.00
13420;BME280;6781;58.440;15.470;2023-11-19T06:13:08;102777.88;;;-3.10;100.00
13420;BME280;6781;58.440;15.470;2023-11-19T06:15:36;102771.00;;;-3.17;100.00
13420;BME280;6781;58.440;15.470;2023-11-19T06:18:03;102772.72;;;-3.16;100.00
13420;BME280;6781;58.440;15.470;2023-11-19T06:20:30;102778.69;;;-3.12;100.00
13420;BME280;6781;58.440;15.470;2023-11-19T06:22:57;102778.69;;;-3.12;100.00
13420;BME280;6781;58.440;15.470;2023-11-19T06:25:24;102787.31;;;-2.98;100.00
13420;BME280;6781;58.440;15.470;2023-11-19T06:27:51;102777.06;;;-3.07;100.00
13420;BME280;6781;58.440;15.470;2023-11-19T06:30:19;102777.97;;;-3.02;100.00
13420;BME280;6781;58.440;15.470;2023-11-19T06:32:46;102785.53;;;-3.05;100.00
13420;BME280;6781;58.440;15.470;2023-11-19T06:35:13;102782.13;;;-3.07;100.00
13420;BME280;6781;58.440;15.470;2023-11-19T06:37:40;102782.25;;;-2.98;100.00
13420;BME280;6781;58.440;15.470;2023-11-19T06:40:07;102774.56;;;-3.03;100.00
13420;BME280;6781;58.440;15.470;2023-11-19T06:42:35;102772.13;;;-2.95;100.00
13420;BME280;6781;58.440;15.470;2023-11-19T06:45:01;102784.84;;;-2.93;100.00
13420;BME280;6781;58.440;15.470;2023-11-19T06:47:30;102784.09;;;-2.85;100.00
13420;BME280;6781;58.440;15.470;2023-11-19T06:49:56;102780.69;;;-2.87;100.00
13420;BME280;6781;58.440;15.470;2023-11-19T06:52:23;102773.13;;;-2.84;100.00
13420;BME280;6781;58.440;15.470;2023-11-19T06:54:50;102766.34;;;-2.85;100.00
13420;BME280;6781;58.440;15.470;2023-11-19T06:57:16;102774.03;;;-2.79;100.00
13420;BME280;6781;58.440;15.470;2023-11-19T06:59:43;102756.22;;;-2.80;100.00
13420;BME280;6781;58.440;15.470;2023-11-19T07:02:10;102765.56;;;-2.79;100.00
13420;BME280;6781;58.440;15.470;2023-11-19T07:04:38;102764.75;;;-2.77;100.00
13420;BME280;6781;58.440;15.470;2023-11-19T07:07:04;102765.59;;;-2.75;100.00
13420;BME280;6781;58.440;15.470;2023-11-19T07:09:31;102779.16;;;-2.73;100.00
13420;BME280;6781;58.440;15.470;2023-11-19T07:11:59;102774.16;;;-2.67;100.00
13420;BME280;6781;58.440;15.470;2023-11-19T07:14:26;102779.28;;;-2.64;100.00
13420;BME280;6781;58.440;15.470;2023-11-19T07:16:53;102774.16;;;-2.67;100.00
13420;BME280;6781;58.440;15.470;2023-11-19T07:19:21;102768.25;;;-2.66;100.00
13420;BME280;6781;58.440;15.470;2023-11-19T07:21:49;102776.78;;;-2.60;100.00
13420;BME280;6781;58.440;15.470;2023-11-19T07:24:16;102769.13;;;-2.64;100.00
13420;BME280;6781;58.440;15.470;2023-11-19T07:26:42;102778.50;;;-2.58;100.00
13420;BME280;6781;58.440;15.470;2023-11-19T07:29:09;102772.53;;;-2.62;100.00
13420;BME280;6781;58.440;15.470;2023-11-19T07:31:36;102775.09;;;-2.60;100.00
13420;BME280;6781;58.440;15.470;2023-11-19T07:34:03;102775.06;;;-2.62;100.00
13420;BME280;6781;58.440;15.470;2023-11-19T07:36:30;102780.22;;;-2.55;100.00
13420;BME280;6781;58.440;15.470;2023-11-19T07:38:58;102790.44;;;-2.49;100.00
13420;BME280;6781;58.440;15.470;2023-11-19T07:41:25;102786.19;;;-2.50;100.00
13420;BME280;6781;58.440;15.470;2023-11-19T07:43:53;102764.88;;;-2.66;100.00
13420;BME280;6781;58.440;15.470;2023-11-19T07:46:20;102791.25;;;-2.53;100.00
13420;BME280;6781;58.440;15.470;2023-11-19T07:48:50;102788.75;;;-2.49;100.00
13420;BME280;6781;58.440;15.470;2023-11-19T07:51:20;102784.59;;;-2.42;100.00
13420;BME280;6781;58.440;15.470;2023-11-19T07:56:44;102780.41;;;-2.36;100.00
13420;BME280;6781;58.440;15.470;2023-11-19T07:59:12;102779.59;;;-2.33;100.00
13420;BME280;6781;58.440;15.470;2023-11-19T08:01:42;102768.53;;;-2.38;100.00
13420;BME280;6781;58.440;15.470;2023-11-19T08:04:09;102777.94;;;-2.31;100.00
13420;BME280;6781;58.440;15.470;2023-11-19T08:06:42;102771.13;;;-2.35;100.00
13420;BME280;6781;58.440;15.470;2023-11-19T08:09:37;102769.44;;;-2.35;100.00
13420;BME280;6781;58.440;15.470;2023-11-19T08:12:08;102771.19;;;-2.26;100.00
13420;BME280;6781;58.440;15.470;2023-11-19T08:14:35;102763.53;;;-2.31;100.00
13420;BME280;6781;58.440;15.470;2023-11-19T08:17:03;102758.44;;;-2.32;100.00
13420;BME280;6781;58.440;15.470;2023-11-19T08:19:41;102770.38;;;-2.25;100.00
13420;BME280;6781;58.440;15.470;2023-11-19T08:22:07;102774.66;;;-2.18;100.00
13420;BME280;6781;58.440;15.470;2023-11-19T08:24:43;102768.69;;;-2.23;100.00
13420;BME280;6781;58.440;15.470;2023-11-19T08:30:24;102777.34;;;-2.04;100.00
13420;BME280;6781;58.440;15.470;2023-11-19T08:33:05;102770.47;;;-2.13;100.00
13420;BME280;6781;58.440;15.470;2023-11-19T08:35:32;102771.41;;;-2.05;100.00
13420;BME280;6781;58.440;15.470;2023-11-19T08:37:59;102781.66;;;-1.94;100.00
13420;BME280;6781;58.440;15.470;2023-11-19T08:40:29;102774.84;;;-1.97;100.00
13420;BME280;6781;58.440;15.470;2023-11-19T08:45:58;102774.03;;;-1.92;100.00
13420;BME280;6781;58.440;15.470;2023-11-19T08:48:24;102784.25;;;-1.86;100.00
13420;BME280;6781;58.440;15.470;2023-11-19T08:50:51;102776.63;;;-1.86;100.00
13420;BME280;6781;58.440;15.470;2023-11-19T08:53:18;102781.75;;;-1.83;100.00
13420;BME280;6781;58.440;15.470;2023-11-19T08:55:46;102783.50;;;-1.76;100.00
13420;BME280;6781;58.440;15.470;2023-11-19T08:58:15;102785.22;;;-1.74;100.00
13420;BME280;6781;58.440;15.470;2023-11-19T09:00:43;102789.47;;;-1.67;100.00
13420;BME280;6781;58.440;15.470;2023-11-19T09:03:12;102773.34;;;-1.70;100.00
13420;BME280;6781;58.440;15.470;2023-11-19T09:05:39;102781.84;;;-1.65;100.00
13420;BME280;6781;58.440;15.470;2023-11-19T09:08:07;102783.56;;;-1.64;100.00
13420;BME280;6781;58.440;15.470;2023-11-19T09:10:34;102776.75;;;-1.68;100.00
13420;BME280;6781;58.440;15.470;2023-11-19T09:13:02;102785.31;;;-1.57;100.00
13420;BME280;6781;58.440;15.470;2023-11-19T09:15:29;102784.47;;;-1.56;100.00
13420;BME280;6781;58.440;15.470;2023-11-19T09:20:24;102796.41;;;-1.44;100.00
13420;BME280;6781;58.440;15.470;2023-11-19T09:22:50;102802.31;;;-1.47;100.00
13420;BME280;6781;58.440;15.470;2023-11-19T09:25:17;102801.50;;;-1.46;100.00
13420;BME280;6781;58.440;15.470;2023-11-19T09:27:49;102807.47;;;-1.38;100.00
13420;BME280;6781;58.440;15.470;2023-11-19T09:30:16;102810.03;;;-1.35;100.00
13420;BME280;6781;58.440;15.470;2023-11-19T09:35:36;102816.00;;;-1.33;100.00
13420;BME280;6781;58.440;15.470;2023-11-19T09:38:06;102820.25;;;-1.28;100.00
13420;BME280;6781;58.440;15.470;2023-11-19T09:43:57;102844.13;;;-1.10;100.00
13420;BME280;6781;58.440;15.470;2023-11-19T09:47:06;102817.75;;;-1.22;100.00
13420;BME280;6781;58.440;15.470;2023-11-19T10:18:12;102855.31;;;-0.82;100.00
13420;BME280;6781;58.440;15.470;2023-11-19T10:20:59;102851.91;;;-0.88;100.00
13420;BME280;6781;58.440;15.470;2023-11-19T10:23:48;102847.66;;;-0.88;100.00
13420;BME280;6781;58.440;15.470;2023-11-19T10:26:33;102845.09;;;-0.91;100.00
13420;BME280;6781;58.440;15.470;2023-11-19T10:29:44;102850.22;;;-0.85;100.00
13420;BME280;6781;58.440;15.470;2023-11-19T10:32:30;102847.66;;;-0.86;100.00
13420;BME280;6781;58.440;15.470;2023-11-19T10:35:11;102863.84;;;-0.77;100.00
13420;BME280;6781;58.440;15.470;2023-11-19T10:37:45;102870.66;;;-0.70;100.00
13420;BME280;6781;58.440;15.470;2023-11-19T10:40:23;102859.56;;;-0.85;100.00
13420;BME280;6781;58.440;15.470;2023-11-19T10:43:06;102871.47;;;-0.77;100.00
13420;BME280;6781;58.440;15.470;2023-11-19T10:45:36;102870.66;;;-0.73;100.00
13420;BME280;6781;58.440;15.470;2023-11-19T10:48:03;102882.53;;;-0.75;100.00
13420;BME280;6781;58.440;15.470;2023-11-19T10:50:33;102891.06;;;-0.63;100.00
13420;BME280;6781;58.440;15.470;2023-11-19T10:53:01;102903.84;;;-0.57;100.00
13420;BME280;6781;58.440;15.470;2023-11-19T10:55:29;102886.81;;;-0.64;100.00
13420;BME280;6781;58.440;15.470;2023-11-19T10:57:59;102892.78;;;-0.62;100.00
13420;BME280;6781;58.440;15.470;2023-11-19T11:00:28;102887.66;;;-0.72;100.00
13420;BME280;6781;58.440;15.470;2023-11-19T11:02:56;102906.38;;;-0.63;100.00
13420;BME280;6781;58.440;15.470;2023-11-19T11:05:30;102928.50;;;-0.53;100.00
13420;BME280;6781;58.440;15.470;2023-11-19T11:08:04;102922.56;;;-0.52;100.00
13420;BME280;6781;58.440;15.470;2023-11-19T11:10:39;102937.03;;;-0.48;100.00
13420;BME280;6781;58.440;15.470;2023-11-19T11:13:22;102935.31;;;-0.49;100.00
13420;BME280;6781;58.440;15.470;2023-11-19T11:15:52;102940.44;;;-0.46;100.00
13420;BME280;6781;58.440;15.470;2023-11-19T11:18:24;102940.44;;;-0.45;100.00
13420;BME280;6781;58.440;15.470;2023-11-19T11:20:57;102943.00;;;-0.43;100.00
13420;BME280;6781;58.440;15.470;2023-11-19T11:26:35;102994.88;;;-0.32;100.00
13420;BME280;6781;58.440;15.470;2023-11-19T11:29:27;102997.44;;;-0.32;100.00
13420;BME280;6781;58.440;15.470;2023-11-19T11:31:59;103001.69;;;-0.28;100.00
13420;BME280;6781;58.440;15.470;2023-11-19T11:34:38;103007.66;;;-0.26;100.00
13420;BME280;6781;58.440;15.470;2023-11-19T11:37:10;102990.59;;;-0.36;100.00
13420;BME280;6781;58.440;15.470;2023-11-19T11:40:07;103001.69;;;-0.31;100.00
13420;BME280;6781;58.440;15.470;2023-11-19T11:48:43;103043.41;;;-0.15;100.00
13420;BME280;6781;58.440;15.470;2023-11-19T11:51:11;103029.81;;;-0.14;100.00
13420;BME280;6781;58.440;15.470;2023-11-19T11:53:38;103040.88;;;-0.14;100.00
13420;BME280;6781;58.440;15.470;2023-11-19T11:56:05;103040.88;;;-0.14;100.00
13420;BME280;6781;58.440;15.470;2023-11-19T11:58:35;103049.41;;;-0.07;100.00
13420;BME280;6781;58.440;15.470;2023-11-19T12:01:03;103045.97;;;-0.14;100.00
13420;BME280;6781;58.440;15.470;2023-11-19T12:03:31;103056.19;;;-0.11;100.00
13420;BME280;6781;58.440;15.470;2023-11-19T12:05:59;103051.09;;;-0.08;100.00
13420;BME280;6781;58.440;15.470;2023-11-19T12:08:27;103053.66;;;-0.09;100.00
13420;BME280;6781;58.440;15.470;2023-11-19T12:10:54;103076.63;;;0.03;100.00
13420;BME280;6781;58.440;15.470;2023-11-19T12:13:23;103066.41;;;-0.05;100.00
13420;BME280;6781;58.440;15.470;2023-11-19T12:16:07;103072.38;;;-0.06;100.00
13420;BME280;6781;58.440;15.470;2023-11-19T12:18:34;103083.44;;;0.03;100.00
13420;BME280;6781;58.440;15.470;2023-11-19T12:21:03;103073.19;;;-0.10;100.00
13420;BME280;6781;58.440;15.470;2023-11-19T12:23:30;103096.19;;;0.06;100.00
13420;BME280;6781;58.440;15.470;2023-11-19T12:25:58;103116.63;;;0.12;100.00
13420;BME280;6781;58.440;15.470;2023-11-19T12:28:25;103110.66;;;0.07;100.00
13420;BME280;6781;58.440;15.470;2023-11-19T12:30:53;103100.44;;;0.04;100.00
13420;BME280;6781;58.440;15.470;2023-11-19T12:33:19;103102.13;;;0.02;100.00
13420;BME280;6781;58.440;15.470;2023-11-19T12:35:47;103112.34;;;0.05;100.00
13420;BME280;6781;58.440;15.470;2023-11-19T12:38:22;103129.41;;;0.15;100.00
13420;BME280;6781;58.440;15.470;2023-11-19T12:41:02;103132.81;;;0.14;100.00
13420;BME280;6781;58.440;15.470;2023-11-19T12:43:29;103114.06;;;-0.01;100.00
13420;BME280;6781;58.440;15.470;2023-11-19T12:45:55;103131.06;;;0.07;100.00
13420;BME280;6781;58.440;15.470;2023-11-19T12:48:28;103143.00;;;0.14;100.00
13420;BME280;6781;58.440;15.470;2023-11-19T12:50:55;103146.38;;;0.10;100.00
13420;BME280;6781;58.440;15.470;2023-11-19T12:53:46;103160.03;;;0.18;100.00
13420;BME280;6781;58.440;15.470;2023-11-19T12:56:13;103155.78;;;0.14;100.00
13420;BME280;6781;58.440;15.470;2023-11-19T12:58:41;103153.22;;;0.14;100.00
13420;BME280;6781;58.440;15.470;2023-11-19T13:01:08;103146.41;;;0.13;100.00
13420;BME280;6781;58.440;15.470;2023-11-19T13:03:35;103155.78;;;0.17;100.00
13420;BME280;6781;58.440;15.470;2023-11-19T13:06:05;103156.63;;;0.13;100.00
13420;BME280;6781;58.440;15.470;2023-11-19T13:08:38;103175.34;;;0.18;100.00
13420;BME280;6781;58.440;15.470;2023-11-19T13:11:06;103174.50;;;0.16;100.00
13420;BME280;6781;58.440;15.470;2023-11-19T13:16:16;103191.50;;;0.17;100.00
13420;BME280;6781;58.440;15.470;2023-11-19T13:18:52;103185.56;;;0.18;100.00
13420;BME280;6781;58.440;15.470;2023-11-19T13:21:28;103198.34;;;0.24;100.00
13420;BME280;6781;58.440;15.470;2023-11-19T13:26:46;103211.13;;;0.24;100.00
13420;BME280;6781;58.440;15.470;2023-11-19T13:29:28;103196.56;;;0.12;100.00
13420;BME280;6781;58.440;15.470;2023-11-19T13:31:55;103223.00;;;0.22;100.00
13420;BME280;6781;58.440;15.470;2023-11-19T13:34:24;103214.50;;;0.20;100.00
13420;BME280;6781;58.440;15.470;2023-11-19T13:36:51;103222.13;;;0.18;100.00
13420;BME280;6781;58.440;15.470;2023-11-19T13:39:22;103228.06;;;0.16;100.00
13420;BME280;6781;58.440;15.470;2023-11-19T13:41:51;103223.81;;;0.15;100.00
13420;BME280;6781;58.440;15.470;2023-11-19T13:44:19;103226.34;;;0.13;100.00
13420;BME280;6781;58.440;15.470;2023-11-19T13:46:46;103238.25;;;0.11;100.00
13420;BME280;6781;58.440;15.470;2023-11-19T13:49:13;103240.81;;;0.13;100.00
13420;BME280;6781;58.440;15.470;2023-11-19T13:51:40;103249.31;;;0.13;100.00
13420;BME280;6781;58.440;15.470;2023-11-19T13:54:07;103265.50;;;0.17;100.00
13420;BME280;6781;58.440;15.470;2023-11-19T13:56:35;103263.75;;;0.13;100.00
13420;BME280;6781;58.440;15.470;2023-11-19T13:59:14;103282.50;;;0.18;100.00
13420;BME280;6781;58.440;15.470;2023-11-19T14:01:43;103291.00;;;0.15;100.00
13420;BME280;6781;58.440;15.470;2023-11-19T14:04:12;103309.81;;;0.28;100.00
13420;BME280;6781;58.440;15.470;2023-11-19T14:06:39;103306.38;;;0.23;100.00
13420;BME280;6781;58.440;15.470;2023-11-19T14:09:06;103316.56;;;0.20;100.00
13420;BME280;6781;58.440;15.470;2023-11-19T14:11:38;103319.09;;;0.20;100.00
13420;BME280;6781;58.440;15.470;2023-11-19T14:14:08;103315.69;;;0.19;100.00
13420;BME280;6781;58.440;15.470;2023-11-19T14:16:37;103331.03;;;0.22;100.00
13420;BME280;6781;58.440;15.470;2023-11-19T14:19:04;103313.06;;;0.09;100.00
13420;BME280;6781;58.440;15.470;2023-11-19T14:21:30;103319.84;;;0.08;100.00
13420;BME280;6781;58.440;15.470;2023-11-19T14:23:57;103331.72;;;0.05;100.00
13420;BME280;6781;58.440;15.470;2023-11-19T14:26:24;103350.47;;;0.10;100.00
13420;BME280;6781;58.440;15.470;2023-11-19T14:28:51;103355.56;;;0.07;100.00
13420;BME280;6781;58.440;15.470;2023-11-19T14:31:18;103353.84;;;0.06;100.00
13420;BME280;6781;58.440;15.470;2023-11-19T14:33:46;103364.91;;;0.08;100.00
13420;BME280;6781;58.440;15.470;2023-11-19T14:36:14;103364.03;;;0.06;100.00
13420;BME280;6781;58.440;15.470;2023-11-19T14:38:41;103364.00;;;0.03;100.00
13420;BME280;6781;58.440;15.470;2023-11-19T14:41:08;103362.31;;;-0.02;100.00
13420;BME280;6781;58.440;15.470;2023-11-19T14:43:35;103373.38;;;-0.01;100.00
13420;BME280;6781;58.440;15.470;2023-11-19T14:46:02;103385.25;;;-0.02;100.00
13420;BME280;6781;58.440;15.470;2023-11-19T14:48:29;103380.13;;;-0.05;100.00
13420;BME280;6781;58.440;15.470;2023-11-19T14:50:58;103392.03;;;-0.05;100.00
13420;BME280;6781;58.440;15.470;2023-11-19T14:53:25;103415.00;;;-0.04;100.00
13420;BME280;6781;58.440;15.470;2023-11-19T14:55:53;103414.13;;;-0.06;100.00
13420;BME280;6781;58.440;15.470;2023-11-19T14:58:20;103424.38;;;-0.01;100.00
13420;BME280;6781;58.440;15.470;2023-11-19T15:00:47;103435.44;;;-0.01;100.00
13420;BME280;6781;58.440;15.470;2023-11-19T15:03:14;103437.13;;;-0.01;100.00
13420;BME280;6781;58.440;15.470;2023-11-19T15:05:41;103431.13;;;-0.05;100.00
13420;BME280;6781;58.440;15.470;2023-11-19T15:08:10;103452.41;;;-0.03;100.00
13420;BME280;6781;58.440;15.470;2023-11-19T15:10:41;103454.13;;;-0.02;100.00
13420;BME280;6781;58.440;15.470;2023-11-19T15:13:08;103485.53;;;-0.06;100.00
13420;BME280;6781;58.440;15.470;2023-11-19T15:15:35;103497.50;;;0.00;100.00
13420;BME280;6781;58.440;15.470;2023-11-19T15:18:03;103494.91;;;-0.05;100.00
13420;BME280;6781;58.440;15.470;2023-11-19T15:20:30;103507.69;;;-0.02;100.00
13420;BME280;6781;58.440;15.470;2023-11-19T15:22:57;103512.81;;;0.02;100.00
13420;BME280;6781;58.440;15.470;2023-11-19T15:25:36;103518.75;;;-0.03;100.00
13420;BME280;6781;58.440;15.470;2023-11-19T15:28:17;103531.47;;;-0.04;100.00
13420;BME280;6781;58.440;15.470;2023-11-19T15:30:44;103534.78;;;-0.10;100.00
13420;BME280;6781;58.440;15.470;2023-11-19T15:33:10;103545.88;;;-0.08;100.00
13420;BME280;6781;58.440;15.470;2023-11-19T15:35:37;103559.47;;;-0.09;100.00
13420;BME280;6781;58.440;15.470;2023-11-19T15:38:05;103560.25;;;-0.13;100.00
13420;BME280;6781;58.440;15.470;2023-11-19T15:40:36;103569.66;;;-0.09;100.00
13420;BME280;6781;58.440;15.470;2023-11-19T15:43:03;103582.44;;;-0.07;100.00
13420;BME280;6781;58.440;15.470;2023-11-19T15:45:32;103593.41;;;-0.13;100.00
13420;BME280;6781;58.440;15.470;2023-11-19T15:48:08;103584.88;;;-0.15;100.00
13420;BME280;6781;58.440;15.470;2023-11-19T15:50:51;103596.81;;;-0.14;100.00
13420;BME280;6781;58.440;15.470;2023-11-19T15:53:35;103601.91;;;-0.14;100.00
13420;BME280;6781;58.440;15.470;2023-11-19T15:56:03;103612.94;;;-0.15;100.00
13420;BME280;6781;58.440;15.470;2023-11-19T15:58:30;103634.31;;;-0.07;100.00
13420;BME280;6781;58.440;15.470;2023-11-19T16:00:58;103636.78;;;-0.11;100.00
13420;BME280;6781;58.440;15.470;2023-11-19T16:03:25;103635.88;;;-0.16;100.00
13420;BME280;6781;58.440;15.470;2023-11-19T16:05:53;103645.28;;;-0.12;100.00
13420;BME280;6781;58.440;15.470;2023-11-19T16:08:20;103658.16;;;-0.05;100.00
13420;BME280;6781;58.440;15.470;2023-11-19T16:10:47;103662.41;;;-0.05;100.00
13420;BME280;6781;58.440;15.470;2023-11-19T16:13:16;103664.97;;;-0.04;100.00
13420;BME280;6781;58.440;15.470;2023-11-19T16:15:42;103676.88;;;-0.03;100.00
13420;BME280;6781;58.440;15.470;2023-11-19T16:18:09;103682.00;;;0.00;100.00
13420;BME280;6781;58.440;15.470;2023-11-19T16:20:38;103682.81;;;-0.04;100.00
13420;BME280;6781;58.440;15.470;2023-11-19T16:23:07;103684.50;;;-0.04;100.00
13420;BME280;6781;58.440;15.470;2023-11-19T16:25:34;103689.63;;;-0.04;100.00
13420;BME280;6781;58.440;15.470;2023-11-19T16:28:02;103633.88;;;-0.34;100.00
13420;BME280;6781;58.440;15.470;2023-11-19T16:30:30;103703.28;;;-0.01;100.00
13420;BME280;6781;58.440;15.470;2023-11-19T16:32:57;103704.13;;;0.02;100.00
13420;BME280;6781;58.440;15.470;2023-11-19T16:35:25;103696.47;;;0.02;100.00
13420;BME280;6781;58.440;15.470;2023-11-19T16:37:51;103698.19;;;-0.01;100.00
13420;BME280;6781;58.440;15.470;2023-11-19T16:40:18;103705.81;;;0.01;100.00
13420;BME280;6781;58.440;15.470;2023-11-19T16:42:45;103716.03;;;-0.01;100.00
13420;BME280;6781;58.440;15.470;2023-11-19T16:45:12;103707.50;;;0.00;100.00
13420;BME280;6781;58.440;15.470;2023-11-19T16:47:41;103721.16;;;0.03;100.00
13420;BME280;6781;58.440;15.470;2023-11-19T16:50:17;103723.69;;;-0.01;100.00
13420;BME280;6781;58.440;15.470;2023-11-19T16:52:44;103718.56;;;0.01;100.00
13420;BME280;6781;58.440;15.470;2023-11-19T16:55:11;103711.66;;;-0.09;100.00
13420;BME280;6781;58.440;15.470;2023-11-19T16:57:43;103727.84;;;-0.07;100.00